sensor_id;sensor_type;location;lat;lon;timestamp;temperature;humidity
26503;DHT22;14177;51.520;6.764;2022-09-25T00:01:09;13.70;96.50
26503;DHT22;14177;51.520;6.764;2022-09-25T00:03:37;13.60;96.50
26503;DHT22;14177;51.520;6.764;2022-09-25T00:06:12;13.60;96.60
26503;DHT22;14177;51.520;6.764;2022-09-25T00:08:47;13.60;96.70
26503;DHT22;14177;51.520;6.764;2022-09-25T00:11:18;13.60;96.80
26503;DHT22;14177;51.520;6.764;2022-09-25T00:13:47;13.70;96.90
26503;DHT22;14177;51.520;6.764;2022-09-25T00:16:17;13.60;96.90
26503;DHT22;14177;51.520;6.764;2022-09-25T00:18:46;13.60;97.00
26503;DHT22;14177;51.520;6.764;2022-09-25T00:21:32;13.60;97.00
26503;DHT22;14177;51.520;6.764;2022-09-25T00:24:03;13.60;97.00
26503;DHT22;14177;51.520;6.764;2022-09-25T00:26:35;13.60;97.10
26503;DHT22;14177;51.520;6.764;2022-09-25T00:29:05;13.60;97.20
26503;DHT22;14177;51.520;6.764;2022-09-25T00:31:33;13.60;97.20
26503;DHT22;14177;51.520;6.764;2022-09-25T00:34:02;13.60;97.20
26503;DHT22;14177;51.520;6.764;2022-09-25T00:36:32;13.60;97.60
26503;DHT22;14177;51.520;6.764;2022-09-25T00:39:00;13.60;97.40
26503;DHT22;14177;51.520;6.764;2022-09-25T00:41:28;13.60;97.40
26503;DHT22;14177;51.520;6.764;2022-09-25T00:43:59;13.60;97.50
26503;DHT22;14177;51.520;6.764;2022-09-25T00:46:35;13.60;97.50
26503;DHT22;14177;51.520;6.764;2022-09-25T00:49:13;13.60;97.60
26503;DHT22;14177;51.520;6.764;2022-09-25T00:52:02;13.60;97.60
26503;DHT22;14177;51.520;6.764;2022-09-25T00:54:41;13.60;97.70
26503;DHT22;14177;51.520;6.764;2022-09-25T00:57:12;13.60;97.70
26503;DHT22;14177;51.520;6.764;2022-09-25T00:59:53;13.50;97.70
26503;DHT22;14177;51.520;6.764;2022-09-25T01:02:29;13.50;97.70
26503;DHT22;14177;51.520;6.764;2022-09-25T01:05:08;13.50;97.70
26503;DHT22;14177;51.520;6.764;2022-09-25T01:07:40;13.50;97.80
26503;DHT22;14177;51.520;6.764;2022-09-25T01:10:10;13.50;97.80
26503;DHT22;14177;51.520;6.764;2022-09-25T01:12:44;13.50;97.80
26503;DHT22;14177;51.520;6.764;2022-09-25T01:15:16;13.50;97.80
26503;DHT22;14177;51.520;6.764;2022-09-25T01:18:00;13.50;97.80
26503;DHT22;14177;51.520;6.764;2022-09-25T01:29:50;13.40;97.80
26503;DHT22;14177;51.520;6.764;2022-09-25T01:32:50;13.40;97.70
26503;DHT22;14177;51.520;6.764;2022-09-25T01:38:25;13.30;97.70
26503;DHT22;14177;51.520;6.764;2022-09-25T01:41:27;13.30;97.70
26503;DHT22;14177;51.520;6.764;2022-09-25T01:44:07;13.30;97.70
26503;DHT22;14177;51.520;6.764;2022-09-25T01:46:44;13.30;97.70
26503;DHT22;14177;51.520;6.764;2022-09-25T01:52:40;13.30;97.70
26503;DHT22;14177;51.520;6.764;2022-09-25T01:55:21;13.30;97.70
26503;DHT22;14177;51.520;6.764;2022-09-25T01:58:22;13.30;97.70
26503;DHT22;14177;51.520;6.764;2022-09-25T02:01:03;13.20;97.70
26503;DHT22;14177;51.520;6.764;2022-09-25T02:03:48;13.30;97.60
26503;DHT22;14177;51.520;6.764;2022-09-25T02:06:18;13.30;97.60
26503;DHT22;14177;51.520;6.764;2022-09-25T02:09:12;13.20;97.50
26503;DHT22;14177;51.520;6.764;2022-09-25T02:11:49;13.20;97.50
26503;DHT22;14177;51.520;6.764;2022-09-25T02:14:20;13.20;97.40
26503;DHT22;14177;51.520;6.764;2022-09-25T02:17:00;13.20;97.40
26503;DHT22;14177;51.520;6.764;2022-09-25T02:19:31;13.20;97.40
26503;DHT22;14177;51.520;6.764;2022-09-25T02:22:25;13.20;97.40
26503;DHT22;14177;51.520;6.764;2022-09-25T02:25:14;13.20;97.40
26503;DHT22;14177;51.520;6.764;2022-09-25T02:27:59;13.20;97.40
26503;DHT22;14177;51.520;6.764;2022-09-25T02:30:27;13.20;97.50
26503;DHT22;14177;51.520;6.764;2022-09-25T02:32:54;13.20;97.50
26503;DHT22;14177;51.520;6.764;2022-09-25T02:35:24;13.20;97.50
26503;DHT22;14177;51.520;6.764;2022-09-25T02:37:52;13.20;97.60
26503;DHT22;14177;51.520;6.764;2022-09-25T02:41:14;13.20;97.60
26503;DHT22;14177;51.520;6.764;2022-09-25T02:44:00;13.10;97.60
26503;DHT22;14177;51.520;6.764;2022-09-25T02:46:50;13.10;97.60
26503;DHT22;14177;51.520;6.764;2022-09-25T02:50:03;13.10;97.70
26503;DHT22;14177;51.520;6.764;2022-09-25T02:53:08;13.10;97.70
26503;DHT22;14177;51.520;6.764;2022-09-25T02:56:03;13.10;97.80
26503;DHT22;14177;51.520;6.764;2022-09-25T02:58:44;13.00;97.80
26503;DHT22;14177;51.520;6.764;2022-09-25T03:01:19;13.00;97.80
26503;DHT22;14177;51.520;6.764;2022-09-25T03:03:50;13.00;97.80
26503;DHT22;14177;51.520;6.764;2022-09-25T03:06:23;13.00;97.70
26503;DHT22;14177;51.520;6.764;2022-09-25T03:08:54;13.00;97.70
26503;DHT22;14177;51.520;6.764;2022-09-25T03:11:24;13.00;97.80
26503;DHT22;14177;51.520;6.764;2022-09-25T03:13:56;13.00;97.80
26503;DHT22;14177;51.520;6.764;2022-09-25T03:16:46;13.00;97.70
26503;DHT22;14177;51.520;6.764;2022-09-25T03:19:16;13.00;97.60
26503;DHT22;14177;51.520;6.764;2022-09-25T03:21:45;12.90;97.60
26503;DHT22;14177;51.520;6.764;2022-09-25T03:24:14;12.90;97.60
26503;DHT22;14177;51.520;6.764;2022-09-25T03:26:42;12.90;97.60
26503;DHT22;14177;51.520;6.764;2022-09-25T03:29:11;12.90;97.50
26503;DHT22;14177;51.520;6.764;2022-09-25T03:31:40;12.90;97.50
26503;DHT22;14177;51.520;6.764;2022-09-25T03:34:12;12.80;97.50
26503;DHT22;14177;51.520;6.764;2022-09-25T03:36:44;12.80;97.50
26503;DHT22;14177;51.520;6.764;2022-09-25T03:39:14;12.80;97.50
26503;DHT22;14177;51.520;6.764;2022-09-25T03:41:43;12.80;97.50
26503;DHT22;14177;51.520;6.764;2022-09-25T03:44:11;12.70;97.50
26503;DHT22;14177;51.520;6.764;2022-09-25T03:46:38;12.70;97.30
26503;DHT22;14177;51.520;6.764;2022-09-25T03:49:05;12.70;97.30
26503;DHT22;14177;51.520;6.764;2022-09-25T03:51:33;12.70;97.30
26503;DHT22;14177;51.520;6.764;2022-09-25T03:54:00;12.70;97.30
26503;DHT22;14177;51.520;6.764;2022-09-25T03:56:29;12.70;97.30
26503;DHT22;14177;51.520;6.764;2022-09-25T03:58:57;12.70;97.20
26503;DHT22;14177;51.520;6.764;2022-09-25T04:01:25;12.70;97.10
26503;DHT22;14177;51.520;6.764;2022-09-25T04:03:54;12.70;97.00
26503;DHT22;14177;51.520;6.764;2022-09-25T04:06:24;12.60;97.00
26503;DHT22;14177;51.520;6.764;2022-09-25T04:08:52;12.60;97.00
26503;DHT22;14177;51.520;6.764;2022-09-25T04:11:21;12.60;97.00
26503;DHT22;14177;51.520;6.764;2022-09-25T04:13:50;12.60;96.90
26503;DHT22;14177;51.520;6.764;2022-09-25T04:16:19;12.60;96.90
26503;DHT22;14177;51.520;6.764;2022-09-25T04:18:47;12.60;96.90
26503;DHT22;14177;51.520;6.764;2022-09-25T04:21:16;12.50;96.90
26503;DHT22;14177;51.520;6.764;2022-09-25T04:23:43;12.50;96.80
26503;DHT22;14177;51.520;6.764;2022-09-25T04:26:30;12.50;96.80
26503;DHT22;14177;51.520;6.764;2022-09-25T04:28:57;12.40;96.80
26503;DHT22;14177;51.520;6.764;2022-09-25T04:31:27;12.40;96.80
26503;DHT22;14177;51.520;6.764;2022-09-25T04:33:55;12.40;96.80
26503;DHT22;14177;51.520;6.764;2022-09-25T04:36:22;12.40;96.80
26503;DHT22;14177;51.520;6.764;2022-09-25T04:38:49;12.30;96.90
26503;DHT22;14177;51.520;6.764;2022-09-25T04:41:16;12.30;96.80
26503;DHT22;14177;51.520;6.764;2022-09-25T04:43:46;12.30;96.90
26503;DHT22;14177;51.520;6.764;2022-09-25T04:46:14;12.30;96.90
26503;DHT22;14177;51.520;6.764;2022-09-25T04:48:48;12.20;96.80
26503;DHT22;14177;51.520;6.764;2022-09-25T04:51:15;12.20;96.90
26503;DHT22;14177;51.520;6.764;2022-09-25T04:53:42;12.20;96.90
26503;DHT22;14177;51.520;6.764;2022-09-25T04:56:09;12.20;96.80
26503;DHT22;14177;51.520;6.764;2022-09-25T04:58:46;12.10;96.80
26503;DHT22;14177;51.520;6.764;2022-09-25T05:01:16;12.10;96.90
26503;DHT22;14177;51.520;6.764;2022-09-25T05:03:49;12.10;96.90
26503;DHT22;14177;51.520;6.764;2022-09-25T05:06:19;12.10;97.00
26503;DHT22;14177;51.520;6.764;2022-09-25T05:08:47;12.00;96.90
26503;DHT22;14177;51.520;6.764;2022-09-25T05:11:18;12.00;97.00
26503;DHT22;14177;51.520;6.764;2022-09-25T05:13:49;12.00;97.00
26503;DHT22;14177;51.520;6.764;2022-09-25T05:16:17;12.00;97.10
26503;DHT22;14177;51.520;6.764;2022-09-25T05:18:44;12.00;97.10
26503;DHT22;14177;51.520;6.764;2022-09-25T05:21:12;12.00;97.10
26503;DHT22;14177;51.520;6.764;2022-09-25T05:23:39;11.90;97.00
26503;DHT22;14177;51.520;6.764;2022-09-25T05:26:08;11.90;97.00
26503;DHT22;14177;51.520;6.764;2022-09-25T05:28:36;11.90;97.00
26503;DHT22;14177;51.520;6.764;2022-09-25T05:31:04;11.80;97.00
26503;DHT22;14177;51.520;6.764;2022-09-25T05:33:32;11.90;97.00
26503;DHT22;14177;51.520;6.764;2022-09-25T05:36:02;11.80;96.90
26503;DHT22;14177;51.520;6.764;2022-09-25T05:38:35;11.80;97.00
26503;DHT22;14177;51.520;6.764;2022-09-25T05:41:05;11.80;97.00
26503;DHT22;14177;51.520;6.764;2022-09-25T05:43:37;11.70;97.00
26503;DHT22;14177;51.520;6.764;2022-09-25T05:46:09;11.70;97.00
26503;DHT22;14177;51.520;6.764;2022-09-25T05:48:37;11.70;97.00
26503;DHT22;14177;51.520;6.764;2022-09-25T05:51:04;11.60;97.00
26503;DHT22;14177;51.520;6.764;2022-09-25T05:53:31;11.60;97.00
26503;DHT22;14177;51.520;6.764;2022-09-25T05:56:00;11.60;97.10
26503;DHT22;14177;51.520;6.764;2022-09-25T05:58:30;11.50;97.00
26503;DHT22;14177;51.520;6.764;2022-09-25T06:01:00;11.50;97.10
26503;DHT22;14177;51.520;6.764;2022-09-25T06:03:29;11.50;97.20
26503;DHT22;14177;51.520;6.764;2022-09-25T06:05:59;11.50;97.20
26503;DHT22;14177;51.520;6.764;2022-09-25T06:08:27;11.50;97.20
26503;DHT22;14177;51.520;6.764;2022-09-25T06:10:57;11.50;97.20
26503;DHT22;14177;51.520;6.764;2022-09-25T06:13:26;11.50;97.20
26503;DHT22;14177;51.520;6.764;2022-09-25T06:15:55;11.50;97.20
26503;DHT22;14177;51.520;6.764;2022-09-25T06:18:24;11.50;97.20
26503;DHT22;14177;51.520;6.764;2022-09-25T06:21:01;11.50;97.20
26503;DHT22;14177;51.520;6.764;2022-09-25T06:23:30;11.50;97.20
26503;DHT22;14177;51.520;6.764;2022-09-25T06:26:01;11.50;97.20
26503;DHT22;14177;51.520;6.764;2022-09-25T06:28:31;11.60;97.20
26503;DHT22;14177;51.520;6.764;2022-09-25T06:31:00;11.60;97.20
26503;DHT22;14177;51.520;6.764;2022-09-25T06:33:30;11.60;97.20
26503;DHT22;14177;51.520;6.764;2022-09-25T06:36:00;11.60;97.10
26503;DHT22;14177;51.520;6.764;2022-09-25T06:38:32;11.70;97.10
26503;DHT22;14177;51.520;6.764;2022-09-25T06:41:00;11.70;97.00
26503;DHT22;14177;51.520;6.764;2022-09-25T06:43:28;11.70;96.80
26503;DHT22;14177;51.520;6.764;2022-09-25T06:46:01;11.80;96.90
26503;DHT22;14177;51.520;6.764;2022-09-25T06:48:30;11.80;96.70
26503;DHT22;14177;51.520;6.764;2022-09-25T06:50:59;11.80;96.70
26503;DHT22;14177;51.520;6.764;2022-09-25T06:53:27;11.90;96.50
26503;DHT22;14177;51.520;6.764;2022-09-25T06:55:57;11.90;96.40
26503;DHT22;14177;51.520;6.764;2022-09-25T06:58:27;12.00;96.40
26503;DHT22;14177;51.520;6.764;2022-09-25T07:00:56;12.00;96.40
26503;DHT22;14177;51.520;6.764;2022-09-25T07:03:23;12.10;96.10
26503;DHT22;14177;51.520;6.764;2022-09-25T07:06:31;12.10;96.20
26503;DHT22;14177;51.520;6.764;2022-09-25T07:09:00;12.20;96.20
26503;DHT22;14177;51.520;6.764;2022-09-25T07:11:29;12.30;96.00
26503;DHT22;14177;51.520;6.764;2022-09-25T07:13:59;12.40;96.00
26503;DHT22;14177;51.520;6.764;2022-09-25T07:16:28;12.50;95.90
26503;DHT22;14177;51.520;6.764;2022-09-25T07:18:58;12.60;96.00
26503;DHT22;14177;51.520;6.764;2022-09-25T07:21:27;12.80;95.70
26503;DHT22;14177;51.520;6.764;2022-09-25T07:24:04;12.90;95.10
26503;DHT22;14177;51.520;6.764;2022-09-25T07:26:33;13.10;95.40
26503;DHT22;14177;51.520;6.764;2022-09-25T07:29:09;13.30;95.10
26503;DHT22;14177;51.520;6.764;2022-09-25T07:31:42;13.40;94.80
26503;DHT22;14177;51.520;6.764;2022-09-25T07:34:10;13.70;94.70
26503;DHT22;14177;51.520;6.764;2022-09-25T07:36:41;14.00;94.40
26503;DHT22;14177;51.520;6.764;2022-09-25T07:39:11;14.20;93.50
26503;DHT22;14177;51.520;6.764;2022-09-25T07:41:45;14.40;93.30
26503;DHT22;14177;51.520;6.764;2022-09-25T07:44:15;14.70;92.90
26503;DHT22;14177;51.520;6.764;2022-09-25T07:46:56;15.00;92.40
26503;DHT22;14177;51.520;6.764;2022-09-25T07:49:23;15.20;91.10
26503;DHT22;14177;51.520;6.764;2022-09-25T07:51:51;15.40;91.10
26503;DHT22;14177;51.520;6.764;2022-09-25T07:54:19;15.70;90.90
26503;DHT22;14177;51.520;6.764;2022-09-25T07:56:47;15.90;90.60
26503;DHT22;14177;51.520;6.764;2022-09-25T07:59:14;16.10;90.20
26503;DHT22;14177;51.520;6.764;2022-09-25T08:01:42;16.40;89.80
26503;DHT22;14177;51.520;6.764;2022-09-25T08:04:17;16.60;89.00
26503;DHT22;14177;51.520;6.764;2022-09-25T08:06:44;16.90;86.40
26503;DHT22;14177;51.520;6.764;2022-09-25T08:09:11;17.10;86.50
26503;DHT22;14177;51.520;6.764;2022-09-25T08:11:38;17.20;85.40
26503;DHT22;14177;51.520;6.764;2022-09-25T08:14:05;17.40;85.40
26503;DHT22;14177;51.520;6.764;2022-09-25T08:16:32;17.50;84.10
26503;DHT22;14177;51.520;6.764;2022-09-25T08:18:58;17.60;81.90
26503;DHT22;14177;51.520;6.764;2022-09-25T08:21:25;17.60;83.40
26503;DHT22;14177;51.520;6.764;2022-09-25T08:23:52;17.80;83.30
26503;DHT22;14177;51.520;6.764;2022-09-25T08:26:21;17.90;82.50
26503;DHT22;14177;51.520;6.764;2022-09-25T08:28:49;18.10;82.20
26503;DHT22;14177;51.520;6.764;2022-09-25T08:31:17;18.30;80.90
26503;DHT22;14177;51.520;6.764;2022-09-25T08:33:45;18.50;80.70
26503;DHT22;14177;51.520;6.764;2022-09-25T08:36:14;18.80;78.40
26503;DHT22;14177;51.520;6.764;2022-09-25T08:38:41;18.90;80.50
26503;DHT22;14177;51.520;6.764;2022-09-25T08:47:19;19.40;77.60
26503;DHT22;14177;51.520;6.764;2022-09-25T08:50:21;19.50;76.20
26503;DHT22;14177;51.520;6.764;2022-09-25T08:53:03;19.60;75.70
26503;DHT22;14177;51.520;6.764;2022-09-25T08:55:34;19.60;76.10
26503;DHT22;14177;51.520;6.764;2022-09-25T08:58:30;19.70;76.70
26503;DHT22;14177;51.520;6.764;2022-09-25T09:01:02;19.80;74.10
26503;DHT22;14177;51.520;6.764;2022-09-25T09:03:35;19.70;74.20
26503;DHT22;14177;51.520;6.764;2022-09-25T09:06:14;19.60;76.10
26503;DHT22;14177;51.520;6.764;2022-09-25T09:09:04;19.70;74.30
26503;DHT22;14177;51.520;6.764;2022-09-25T09:11:48;19.60;74.00
26503;DHT22;14177;51.520;6.764;2022-09-25T09:14:26;19.60;73.70
26503;DHT22;14177;51.520;6.764;2022-09-25T09:17:18;19.50;72.90
26503;DHT22;14177;51.520;6.764;2022-09-25T09:19:52;19.40;73.90
26503;DHT22;14177;51.520;6.764;2022-09-25T09:22:34;19.20;75.80
26503;DHT22;14177;51.520;6.764;2022-09-25T09:25:34;19.40;77.00
26503;DHT22;14177;51.520;6.764;2022-09-25T09:34:00;20.20;74.50
26503;DHT22;14177;51.520;6.764;2022-09-25T09:39:36;20.40;69.90
26503;DHT22;14177;51.520;6.764;2022-09-25T09:42:19;20.20;70.50
26503;DHT22;14177;51.520;6.764;2022-09-25T09:47:36;20.50;71.10
26503;DHT22;14177;51.520;6.764;2022-09-25T09:53:32;20.00;70.40
26503;DHT22;14177;51.520;6.764;2022-09-25T09:56:22;19.70;70.60
26503;DHT22;14177;51.520;6.764;2022-09-25T09:59:16;19.50;72.80
26503;DHT22;14177;51.520;6.764;2022-09-25T10:01:59;19.50;73.40
26503;DHT22;14177;51.520;6.764;2022-09-25T10:05:07;19.80;72.00
26503;DHT22;14177;51.520;6.764;2022-09-25T10:07:57;19.70;72.20
26503;DHT22;14177;51.520;6.764;2022-09-25T10:10:37;20.10;72.80
26503;DHT22;14177;51.520;6.764;2022-09-25T10:21:41;20.50;71.70
26503;DHT22;14177;51.520;6.764;2022-09-25T10:24:47;21.00;66.90
26503;DHT22;14177;51.520;6.764;2022-09-25T10:27:27;21.50;66.40
26503;DHT22;14177;51.520;6.764;2022-09-25T10:30:20;22.00;64.80
26503;DHT22;14177;51.520;6.764;2022-09-25T10:35:47;22.40;60.20
26503;DHT22;14177;51.520;6.764;2022-09-25T10:41:19;22.40;60.20
26503;DHT22;14177;51.520;6.764;2022-09-25T10:43:55;22.60;61.70
26503;DHT22;14177;51.520;6.764;2022-09-25T10:46:32;22.90;60.80
26503;DHT22;14177;51.520;6.764;2022-09-25T10:49:43;23.30;60.10
26503;DHT22;14177;51.520;6.764;2022-09-25T10:52:47;23.80;58.00
26503;DHT22;14177;51.520;6.764;2022-09-25T10:55:34;24.00;57.80
26503;DHT22;14177;51.520;6.764;2022-09-25T10:58:20;24.10;53.60
26503;DHT22;14177;51.520;6.764;2022-09-25T11:04:42;23.00;55.30
26503;DHT22;14177;51.520;6.764;2022-09-25T11:07:17;22.40;56.20
26503;DHT22;14177;51.520;6.764;2022-09-25T11:10:19;22.40;57.10
26503;DHT22;14177;51.520;6.764;2022-09-25T11:19:32;20.80;59.20
26503;DHT22;14177;51.520;6.764;2022-09-25T11:26:15;20.60;64.40
26503;DHT22;14177;51.520;6.764;2022-09-25T11:39:17;23.50;56.90
26503;DHT22;14177;51.520;6.764;2022-09-25T11:42:37;23.90;53.40
26503;DHT22;14177;51.520;6.764;2022-09-25T11:45:14;24.30;52.70
26503;DHT22;14177;51.520;6.764;2022-09-25T11:48:02;24.10;49.10
26503;DHT22;14177;51.520;6.764;2022-09-25T11:50:59;23.50;49.80
26503;DHT22;14177;51.520;6.764;2022-09-25T11:56:59;21.90;53.50
26503;DHT22;14177;51.520;6.764;2022-09-25T12:06:12;21.80;58.30
26503;DHT22;14177;51.520;6.764;2022-09-25T12:09:01;22.50;56.30
26503;DHT22;14177;51.520;6.764;2022-09-25T12:17:28;23.70;48.10
26503;DHT22;14177;51.520;6.764;2022-09-25T12:32:11;23.80;48.20
26503;DHT22;14177;51.520;6.764;2022-09-25T12:38:29;23.20;48.60
26503;DHT22;14177;51.520;6.764;2022-09-25T12:41:13;23.20;50.20
26503;DHT22;14177;51.520;6.764;2022-09-25T12:43:51;23.50;49.90
26503;DHT22;14177;51.520;6.764;2022-09-25T12:49:18;24.10;47.50
26503;DHT22;14177;51.520;6.764;2022-09-25T12:51:56;24.00;48.80
26503;DHT22;14177;51.520;6.764;2022-09-25T12:54:34;24.30;47.30
26503;DHT22;14177;51.520;6.764;2022-09-25T12:59:59;24.30;47.80
26503;DHT22;14177;51.520;6.764;2022-09-25T13:02:36;24.50;46.90
26503;DHT22;14177;51.520;6.764;2022-09-25T13:05:18;24.50;48.40
26503;DHT22;14177;51.520;6.764;2022-09-25T13:11:04;24.30;48.40
26503;DHT22;14177;51.520;6.764;2022-09-25T13:13:48;24.30;45.20
26503;DHT22;14177;51.520;6.764;2022-09-25T13:16:19;23.80;45.00
26503;DHT22;14177;51.520;6.764;2022-09-25T13:19:09;23.50;46.00
26503;DHT22;14177;51.520;6.764;2022-09-25T13:21:40;23.50;46.50
26503;DHT22;14177;51.520;6.764;2022-09-25T13:24:13;23.70;48.80
26503;DHT22;14177;51.520;6.764;2022-09-25T13:26:51;24.10;47.90
26503;DHT22;14177;51.520;6.764;2022-09-25T13:29:31;24.50;46.50
26503;DHT22;14177;51.520;6.764;2022-09-25T13:32:13;24.50;45.60
26503;DHT22;14177;51.520;6.764;2022-09-25T13:34:44;24.10;46.70
26503;DHT22;14177;51.520;6.764;2022-09-25T13:37:14;23.90;48.10
26503;DHT22;14177;51.520;6.764;2022-09-25T13:39:45;24.20;47.00
26503;DHT22;14177;51.520;6.764;2022-09-25T13:47:55;24.20;47.00
26503;DHT22;14177;51.520;6.764;2022-09-25T13:53:18;24.50;47.80
26503;DHT22;14177;51.520;6.764;2022-09-25T13:58:26;24.10;49.00
26503;DHT22;14177;51.520;6.764;2022-09-25T14:00:56;23.80;48.90
26503;DHT22;14177;51.520;6.764;2022-09-25T14:03:41;23.40;49.90
26503;DHT22;14177;51.520;6.764;2022-09-25T14:06:29;23.10;51.20
26503;DHT22;14177;51.520;6.764;2022-09-25T14:09:16;23.10;50.90
26503;DHT22;14177;51.520;6.764;2022-09-25T14:14:34;22.40;52.90
26503;DHT22;14177;51.520;6.764;2022-09-25T14:17:14;22.10;53.60
26503;DHT22;14177;51.520;6.764;2022-09-25T14:19:44;22.10;54.00
26503;DHT22;14177;51.520;6.764;2022-09-25T14:22:26;22.30;54.00
26503;DHT22;14177;51.520;6.764;2022-09-25T14:24:59;22.60;53.00
26503;DHT22;14177;51.520;6.764;2022-09-25T14:27:27;22.50;52.30
26503;DHT22;14177;51.520;6.764;2022-09-25T14:30:09;22.30;51.90
26503;DHT22;14177;51.520;6.764;2022-09-25T14:32:43;22.00;52.30
26503;DHT22;14177;51.520;6.764;2022-09-25T14:35:54;21.90;52.90
26503;DHT22;14177;51.520;6.764;2022-09-25T14:41:48;22.40;53.10
26503;DHT22;14177;51.520;6.764;2022-09-25T14:47:55;22.10;52.70
26503;DHT22;14177;51.520;6.764;2022-09-25T14:50:29;21.90;52.50
26503;DHT22;14177;51.520;6.764;2022-09-25T14:53:05;21.70;53.00
26503;DHT22;14177;51.520;6.764;2022-09-25T14:55:41;21.70;53.80
26503;DHT22;14177;51.520;6.764;2022-09-25T14:58:16;21.90;54.20
26503;DHT22;14177;51.520;6.764;2022-09-25T15:00:49;22.20;53.30
26503;DHT22;14177;51.520;6.764;2022-09-25T15:03:23;22.30;52.20
26503;DHT22;14177;51.520;6.764;2022-09-25T15:05:52;22.10;53.60
26503;DHT22;14177;51.520;6.764;2022-09-25T15:08:35;22.10;52.90
26503;DHT22;14177;51.520;6.764;2022-09-25T15:11:15;22.20;52.40
26503;DHT22;14177;51.520;6.764;2022-09-25T15:13:44;22.10;52.70
26503;DHT22;14177;51.520;6.764;2022-09-25T15:16:24;21.90;52.20
26503;DHT22;14177;51.520;6.764;2022-09-25T15:19:19;21.40;53.40
26503;DHT22;14177;51.520;6.764;2022-09-25T15:21:53;21.10;54.90
26503;DHT22;14177;51.520;6.764;2022-09-25T15:24:23;20.90;55.50
26503;DHT22;14177;51.520;6.764;2022-09-25T15:26:57;20.70;55.50
26503;DHT22;14177;51.520;6.764;2022-09-25T15:29:40;20.70;57.60
26503;DHT22;14177;51.520;6.764;2022-09-25T15:32:25;20.90;55.30
26503;DHT22;14177;51.520;6.764;2022-09-25T15:35:16;20.90;53.90
26503;DHT22;14177;51.520;6.764;2022-09-25T15:37:45;20.80;54.10
26503;DHT22;14177;51.520;6.764;2022-09-25T15:40:19;20.60;54.40
26503;DHT22;14177;51.520;6.764;2022-09-25T15:42:51;20.40;54.50
26503;DHT22;14177;51.520;6.764;2022-09-25T15:48:16;19.90;55.80
26503;DHT22;14177;51.520;6.764;2022-09-25T15:50:48;19.60;57.00
26503;DHT22;14177;51.520;6.764;2022-09-25T15:53:25;19.50;58.10
26503;DHT22;14177;51.520;6.764;2022-09-25T15:56:05;19.40;59.50
26503;DHT22;14177;51.520;6.764;2022-09-25T15:58:43;19.20;60.30
26503;DHT22;14177;51.520;6.764;2022-09-25T16:01:14;19.10;60.80
26503;DHT22;14177;51.520;6.764;2022-09-25T16:04:06;19.00;61.20
26503;DHT22;14177;51.520;6.764;2022-09-25T16:06:54;18.80;62.30
26503;DHT22;14177;51.520;6.764;2022-09-25T16:09:32;18.50;63.00
26503;DHT22;14177;51.520;6.764;2022-09-25T16:14:52;18.30;63.90
26503;DHT22;14177;51.520;6.764;2022-09-25T16:17:32;18.20;64.70
26503;DHT22;14177;51.520;6.764;2022-09-25T16:22:45;18.00;65.40
26503;DHT22;14177;51.520;6.764;2022-09-25T16:25:22;17.90;65.70
26503;DHT22;14177;51.520;6.764;2022-09-25T16:27:54;17.90;66.20
26503;DHT22;14177;51.520;6.764;2022-09-25T16:30:28;17.80;66.60
26503;DHT22;14177;51.520;6.764;2022-09-25T16:33:03;17.70;67.10
26503;DHT22;14177;51.520;6.764;2022-09-25T16:35:36;17.80;67.50
26503;DHT22;14177;51.520;6.764;2022-09-25T16:38:30;17.70;67.80
26503;DHT22;14177;51.520;6.764;2022-09-25T16:41:05;17.70;68.50
26503;DHT22;14177;51.520;6.764;2022-09-25T16:43:35;17.70;69.10
26503;DHT22;14177;51.520;6.764;2022-09-25T16:46:16;17.60;69.70
26503;DHT22;14177;51.520;6.764;2022-09-25T16:48:57;17.60;70.10
26503;DHT22;14177;51.520;6.764;2022-09-25T16:51:27;17.50;69.60
26503;DHT22;14177;51.520;6.764;2022-09-25T16:53:58;17.40;69.50
26503;DHT22;14177;51.520;6.764;2022-09-25T16:56:28;17.30;69.50
26503;DHT22;14177;51.520;6.764;2022-09-25T16:58:57;17.30;69.80
26503;DHT22;14177;51.520;6.764;2022-09-25T17:01:26;17.20;69.90
26503;DHT22;14177;51.520;6.764;2022-09-25T17:03:54;17.10;70.30
26503;DHT22;14177;51.520;6.764;2022-09-25T17:06:25;17.10;70.80
26503;DHT22;14177;51.520;6.764;2022-09-25T17:08:57;17.00;71.80
26503;DHT22;14177;51.520;6.764;2022-09-25T17:11:25;16.90;72.10
26503;DHT22;14177;51.520;6.764;2022-09-25T17:13:52;16.90;72.40
26503;DHT22;14177;51.520;6.764;2022-09-25T17:16:19;16.90;72.90
26503;DHT22;14177;51.520;6.764;2022-09-25T17:18:46;16.80;73.50
26503;DHT22;14177;51.520;6.764;2022-09-25T17:21:14;16.70;74.20
26503;DHT22;14177;51.520;6.764;2022-09-25T17:23:42;16.60;74.70
26503;DHT22;14177;51.520;6.764;2022-09-25T17:26:21;16.60;75.20
26503;DHT22;14177;51.520;6.764;2022-09-25T17:28:49;16.60;75.90
26503;DHT22;14177;51.520;6.764;2022-09-25T17:31:19;16.50;76.30
26503;DHT22;14177;51.520;6.764;2022-09-25T17:33:48;16.50;76.70
26503;DHT22;14177;51.520;6.764;2022-09-25T17:36:16;16.40;76.90
26503;DHT22;14177;51.520;6.764;2022-09-25T17:38:43;16.40;77.10
26503;DHT22;14177;51.520;6.764;2022-09-25T17:41:29;16.40;77.40
26503;DHT22;14177;51.520;6.764;2022-09-25T17:43:58;16.40;77.70
26503;DHT22;14177;51.520;6.764;2022-09-25T17:46:25;16.40;77.90
26503;DHT22;14177;51.520;6.764;2022-09-25T17:48:52;16.30;78.10
26503;DHT22;14177;51.520;6.764;2022-09-25T17:51:25;16.30;78.50
26503;DHT22;14177;51.520;6.764;2022-09-25T17:53:54;16.30;78.80
26503;DHT22;14177;51.520;6.764;2022-09-25T17:56:23;16.30;79.30
26503;DHT22;14177;51.520;6.764;2022-09-25T17:58:51;16.20;79.50
26503;DHT22;14177;51.520;6.764;2022-09-25T18:01:24;16.20;79.90
26503;DHT22;14177;51.520;6.764;2022-09-25T18:03:55;16.10;80.20
26503;DHT22;14177;51.520;6.764;2022-09-25T18:06:25;16.10;80.50
26503;DHT22;14177;51.520;6.764;2022-09-25T18:08:53;16.00;80.80
26503;DHT22;14177;51.520;6.764;2022-09-25T18:11:23;15.90;81.40
26503;DHT22;14177;51.520;6.764;2022-09-25T18:13:52;15.90;81.80
26503;DHT22;14177;51.520;6.764;2022-09-25T18:16:28;15.80;82.10
26503;DHT22;14177;51.520;6.764;2022-09-25T18:18:57;15.80;82.30
26503;DHT22;14177;51.520;6.764;2022-09-25T18:21:43;15.70;82.40
26503;DHT22;14177;51.520;6.764;2022-09-25T18:24:28;15.70;82.50
26503;DHT22;14177;51.520;6.764;2022-09-25T18:26:55;15.60;82.90
26503;DHT22;14177;51.520;6.764;2022-09-25T18:29:24;15.50;82.90
26503;DHT22;14177;51.520;6.764;2022-09-25T18:31:51;15.50;83.20
26503;DHT22;14177;51.520;6.764;2022-09-25T18:34:18;15.40;83.50
26503;DHT22;14177;51.520;6.764;2022-09-25T18:36:47;15.40;83.80
26503;DHT22;14177;51.520;6.764;2022-09-25T18:39:17;15.30;83.90
26503;DHT22;14177;51.520;6.764;2022-09-25T18:41:46;15.30;84.10
26503;DHT22;14177;51.520;6.764;2022-09-25T18:44:13;15.20;84.90